Time;durP1;ratioP1;P1;durP2;ratioP2;P2;SDS_P1;SDS_P2;PMS_P1;PMS_P2;Temp;Humidity;BMP_temperature;BMP_pressure;BME280_temperature;BME280_humidity;BME280_pressure;Samples;Min_cycle;Max_cycle;Signal;HPM_P1;HPM_P2
2023/08/03 00:01:12;;;;;;;11.30;2.38;;;17.10;99.90;;;;;;4887005;29;39801;-81
2023/08/03 00:04:00;;;;;;;9.63;2.13;;;17.10;99.90;;;;;;4881347;28;49099;-78
2023/08/03 00:06:32;;;;;;;13.18;2.83;;;17.10;99.90;;;;;;4880790;29;40083;-79
2023/08/03 00:09:33;;;;;;;14.18;2.72;;;17.10;99.90;;;;;;4884962;29;39397;-80
2023/08/03 00:13:07;;;;;;;10.35;2.30;;;17.10;99.90;;;;;;4886554;28;49067;-79
2023/08/03 00:16:38;;;;;;;9.60;2.13;;;17.10;99.90;;;;;;4883384;29;38838;-80
2023/08/03 00:19:58;;;;;;;14.68;3.53;;;17.20;99.90;;;;;;4870331;29;40091;-80
2023/08/03 00:22:48;;;;;;;16.63;3.10;;;17.10;99.90;;;;;;4905465;28;40230;-79
2023/08/03 00:25:42;;;;;;;12.07;2.70;;;17.20;99.90;;;;;;4923888;28;39768;-79
2023/08/03 00:28:41;;;;;;;9.75;2.88;;;17.20;99.90;;;;;;4912571;28;38905;-78
2023/08/03 00:31:37;;;;;;;16.55;3.70;;;17.20;99.90;;;;;;4905377;28;40309;-79
2023/08/03 00:34:50;;;;;;;16.95;3.88;;;17.20;99.90;;;;;;4913459;28;40376;-79
2023/08/03 00:37:32;;;;;;;17.55;4.15;;;17.20;99.90;;;;;;4884429;28;39622;-79
2023/08/03 00:40:23;;;;;;;13.60;3.90;;;17.20;99.90;;;;;;4943886;28;38513;-79
2023/08/03 00:43:04;;;;;;;11.20;2.70;;;17.20;99.90;;;;;;4954586;28;40013;-78
2023/08/03 00:46:05;;;;;;;11.10;2.90;;;17.20;99.90;;;;;;4917138;28;50229;-78
2023/08/03 00:48:45;;;;;;;14.13;3.20;;;17.20;99.90;;;;;;4943089;28;50116;-80
2023/08/03 00:51:45;;;;;;;14.48;3.50;;;17.30;99.90;;;;;;4909270;28;37566;-79
2023/08/03 00:55:23;;;;;;;21.05;3.20;;;17.20;99.90;;;;;;4945608;28;40156;-79
2023/08/03 00:58:39;;;;;;;14.73;3.20;;;17.20;99.90;;;;;;4927366;28;49431;-80
2023/08/03 01:03:42;;;;;;;12.93;3.40;;;17.10;99.90;;;;;;4989613;23;20052;-80
2023/08/03 01:06:16;;;;;;;12.10;3.42;;;17.00;99.90;;;;;;4974253;28;38778;-78
2023/08/03 01:08:42;;;;;;;15.18;3.45;;;17.00;99.90;;;;;;4956697;28;39003;-79
2023/08/03 01:11:09;;;;;;;10.25;3.50;;;17.00;99.90;;;;;;4946491;28;37113;-80
2023/08/03 01:13:35;;;;;;;16.90;4.45;;;17.10;99.90;;;;;;4947274;28;35826;-79
2023/08/03 01:16:01;;;;;;;10.57;2.97;;;17.10;99.90;;;;;;4944035;28;38288;-79
2023/08/03 01:18:27;;;;;;;14.40;3.60;;;17.10;99.90;;;;;;4962381;28;49202;-79
2023/08/03 01:20:54;;;;;;;13.10;3.08;;;17.00;99.90;;;;;;4939824;28;38302;-79
2023/08/03 01:23:20;;;;;;;10.75;2.67;;;17.00;99.90;;;;;;4952844;28;37168;-79
2023/08/03 01:25:46;;;;;;;11.85;3.60;;;17.00;99.90;;;;;;4950161;28;38056;-79
2023/08/03 01:28:15;;;;;;;11.98;2.92;;;17.00;99.90;;;;;;4939872;28;38191;-80
2023/08/03 01:30:42;;;;;;;16.60;3.97;;;17.00;99.90;;;;;;4941862;28;37865;-79
2023/08/03 01:33:08;;;;;;;11.25;2.75;;;17.00;99.90;;;;;;4954626;28;37927;-79
2023/08/03 01:35:34;;;;;;;9.77;2.67;;;17.00;99.90;;;;;;4937659;28;38976;-78
2023/08/03 01:38:00;;;;;;;11.35;3.17;;;17.00;99.90;;;;;;4933466;28;39090;-79
2023/08/03 01:40:26;;;;;;;15.23;3.25;;;17.00;99.90;;;;;;4939177;28;39459;-78
2023/08/03 01:42:52;;;;;;;10.27;3.58;;;17.00;99.90;;;;;;4938148;28;36180;-79
2023/08/03 01:45:19;;;;;;;8.23;3.20;;;16.90;99.90;;;;;;4952202;28;38699;-79
2023/08/03 01:47:45;;;;;;;10.40;3.55;;;16.90;99.90;;;;;;4938227;28;37591;-79
2023/08/03 01:50:11;;;;;;;13.15;4.03;;;16.90;99.90;;;;;;4926225;28;38922;-79
2023/08/03 01:52:38;;;;;;;13.40;4.15;;;16.90;99.90;;;;;;4946431;28;36026;-78
2023/08/03 01:55:05;;;;;;;14.75;4.10;;;16.90;99.90;;;;;;4944302;28;37933;-79
2023/08/03 01:57:31;;;;;;;8.20;3.45;;;16.90;99.90;;;;;;4932333;28;37462;-78
2023/08/03 01:59:57;;;;;;;7.38;2.55;;;16.90;99.90;;;;;;4944877;28;38927;-78
2023/08/03 02:02:23;;;;;;;14.55;3.47;;;16.90;99.90;;;;;;4934935;28;35983;-79
2023/08/03 02:04:49;;;;;;;9.07;3.05;;;16.80;99.90;;;;;;4940739;28;38761;-79
2023/08/03 02:07:17;;;;;;;11.20;3.10;;;16.80;99.90;;;;;;4939350;28;39079;-79
2023/08/03 02:09:44;;;;;;;13.07;3.13;;;16.90;99.90;;;;;;4952131;28;39190;-79
2023/08/03 02:12:10;;;;;;;11.13;3.10;;;16.90;99.90;;;;;;4939635;28;36042;-80
2023/08/03 02:14:36;;;;;;;8.40;2.58;;;16.90;99.90;;;;;;4956740;28;38417;-78
2023/08/03 02:17:02;;;;;;;12.73;3.30;;;16.90;99.90;;;;;;4933731;28;38673;-78
2023/08/03 02:19:28;;;;;;;12.23;2.55;;;16.90;99.90;;;;;;4925890;28;39238;-77
2023/08/03 02:21:54;;;;;;;11.13;3.05;;;16.90;99.90;;;;;;4952431;28;38323;-78
2023/08/03 02:24:20;;;;;;;14.40;3.10;;;16.90;99.90;;;;;;4933611;28;37960;-79
2023/08/03 02:26:46;;;;;;;12.30;2.40;;;16.90;99.90;;;;;;4935734;28;38913;-78
2023/08/03 02:29:12;;;;;;;15.25;3.45;;;16.90;99.90;;;;;;4948809;28;38214;-78
2023/08/03 02:31:38;;;;;;;8.32;2.33;;;17.00;99.90;;;;;;4954028;28;37391;-79
2023/08/03 02:34:04;;;;;;;17.42;3.20;;;17.00;99.90;;;;;;4951763;28;39096;-78
2023/08/03 02:36:30;;;;;;;18.83;3.50;;;17.00;99.90;;;;;;4936648;28;38436;-78
2023/08/03 02:38:57;;;;;;;15.02;3.28;;;17.10;99.90;;;;;;4932665;28;37196;-78
2023/08/03 02:41:23;;;;;;;11.98;3.03;;;17.10;99.90;;;;;;4932919;28;37517;-79
2023/08/03 02:43:49;;;;;;;9.60;2.85;;;17.10;99.90;;;;;;4954300;28;38873;-79
2023/08/03 02:46:15;;;;;;;16.33;3.55;;;17.10;99.90;;;;;;4935572;28;37983;-79
2023/08/03 02:48:41;;;;;;;10.85;2.25;;;17.00;99.90;;;;;;4946559;28;37439;-80
2023/08/03 02:51:07;;;;;;;10.73;3.70;;;17.00;99.90;;;;;;4946367;28;36037;-80
2023/08/03 02:53:33;;;;;;;11.30;4.35;;;17.00;99.90;;;;;;4952117;28;38099;-80
2023/08/03 02:56:00;;;;;;;11.07;3.25;;;17.00;99.90;;;;;;4935487;28;38107;-79
2023/08/03 02:58:26;;;;;;;11.98;3.45;;;17.00;99.90;;;;;;4931658;28;40560;-79
2023/08/03 03:00:52;;;;;;;8.50;2.90;;;17.00;99.90;;;;;;4944648;28;36533;-79
2023/08/03 03:03:18;;;;;;;12.30;3.10;;;17.00;99.90;;;;;;4961401;28;38449;-80
2023/08/03 03:05:44;;;;;;;17.75;3.53;;;16.90;99.90;;;;;;4946514;28;37680;-79
2023/08/03 03:08:10;;;;;;;11.93;3.33;;;16.90;99.90;;;;;;4942605;28;37332;-80
2023/08/03 03:10:36;;;;;;;18.92;3.75;;;16.90;99.90;;;;;;4955310;28;37465;-80
2023/08/03 03:13:02;;;;;;;18.83;3.55;;;16.90;99.90;;;;;;4946903;28;38619;-79
2023/08/03 03:15:28;;;;;;;16.30;3.22;;;16.80;99.90;;;;;;4966311;28;38569;-77
2023/08/03 03:17:54;;;;;;;20.25;3.08;;;16.70;99.90;;;;;;4951193;28;37537;-78
2023/08/03 03:20:21;;;;;;;15.38;2.63;;;16.70;99.90;;;;;;4959306;28;37477;-79
2023/08/03 03:22:47;;;;;;;14.15;2.60;;;16.70;99.90;;;;;;4964310;28;40168;-79
2023/08/03 03:25:13;;;;;;;14.32;2.53;;;16.70;99.90;;;;;;4974192;28;39108;-79
2023/08/03 03:27:39;;;;;;;11.75;2.10;;;16.70;99.90;;;;;;4943700;28;38329;-79
2023/08/03 03:30:06;;;;;;;13.98;2.22;;;16.70;99.90;;;;;;4942605;28;35851;-79
2023/08/03 03:32:32;;;;;;;12.45;1.80;;;16.70;99.90;;;;;;4960988;28;37651;-79
2023/08/03 03:34:58;;;;;;;11.95;2.50;;;16.70;99.90;;;;;;4946116;28;37958;-80
2023/08/03 03:37:24;;;;;;;9.73;2.28;;;16.70;99.90;;;;;;4961839;28;38777;-79
2023/08/03 03:39:51;;;;;;;12.95;2.22;;;16.70;99.90;;;;;;4938844;28;37498;-78
2023/08/03 03:42:17;;;;;;;12.93;2.90;;;16.70;99.90;;;;;;4939389;28;38125;-78
2023/08/03 03:44:43;;;;;;;9.68;1.80;;;16.70;99.90;;;;;;4944063;28;38935;-78
2023/08/03 03:47:09;;;;;;;10.95;2.17;;;16.80;99.90;;;;;;4935046;28;37557;-80
2023/08/03 03:49:35;;;;;;;7.38;2.13;;;16.80;99.90;;;;;;4940969;28;36190;-78
2023/08/03 03:52:01;;;;;;;15.20;3.00;;;16.80;99.90;;;;;;4951788;28;40182;-79
2023/08/03 03:54:42;;;;;;;14.88;3.42;;;16.80;99.90;;;;;;4936923;28;38111;-80
2023/08/03 03:57:08;;;;;;;17.60;4.05;;;16.80;99.90;;;;;;4934662;28;37386;-80
2023/08/03 03:59:34;;;;;;;19.13;2.88;;;16.80;99.90;;;;;;4940755;28;36408;-80
2023/08/03 04:02:00;;;;;;;14.50;2.65;;;16.80;99.90;;;;;;4933951;28;38547;-80
2023/08/03 04:04:26;;;;;;;18.27;3.05;;;16.80;99.90;;;;;;4929852;28;39831;-80
2023/08/03 04:06:54;;;;;;;20.73;3.55;;;16.80;99.90;;;;;;4935446;28;37621;-79
2023/08/03 04:09:20;;;;;;;19.83;3.30;;;16.80;99.90;;;;;;4938408;28;37581;-79
2023/08/03 04:11:46;;;;;;;35.45;5.47;;;16.70;99.90;;;;;;4935354;28;38842;-80
2023/08/03 04:14:12;;;;;;;22.10;4.38;;;16.70;99.90;;;;;;4934686;28;37591;-79
2023/08/03 04:16:38;;;;;;;18.52;4.20;;;16.70;99.90;;;;;;4937822;28;37520;-79
2023/08/03 04:19:04;;;;;;;23.25;4.47;;;16.60;99.90;;;;;;4941950;28;36375;-79
2023/08/03 04:21:30;;;;;;;19.80;4.40;;;16.70;99.90;;;;;;4941868;28;39520;-78
2023/08/03 04:23:56;;;;;;;22.13;4.65;;;16.60;99.90;;;;;;4951409;28;39024;-79
2023/08/03 04:26:22;;;;;;;25.88;4.80;;;16.60;99.90;;;;;;4946666;28;38603;-79
2023/08/03 04:28:48;;;;;;;27.42;4.75;;;16.70;99.90;;;;;;4932735;28;36031;-80
2023/08/03 04:31:14;;;;;;;28.52;5.72;;;16.60;99.90;;;;;;4928411;28;37718;-79
2023/08/03 04:33:40;;;;;;;26.35;4.20;;;16.60;99.90;;;;;;4936136;28;38677;-80
2023/08/03 04:36:07;;;;;;;22.23;5.10;;;16.50;99.90;;;;;;4939948;28;37629;-80
2023/08/03 04:38:33;;;;;;;20.70;3.40;;;16.50;99.90;;;;;;4952304;28;37228;-80
2023/08/03 04:41:01;;;;;;;19.13;3.40;;;16.40;99.90;;;;;;4959444;28;38859;-79
2023/08/03 04:43:28;;;;;;;16.98;3.58;;;16.40;99.90;;;;;;4939243;28;47176;-79
2023/08/03 04:45:55;;;;;;;19.50;4.90;;;16.50;99.90;;;;;;4931038;28;37408;-78
2023/08/03 04:48:21;;;;;;;21.90;3.60;;;16.50;99.90;;;;;;4934483;28;36072;-78
2023/08/03 04:50:47;;;;;;;16.33;3.90;;;16.40;99.90;;;;;;4948305;28;38854;-78
2023/08/03 04:53:13;;;;;;;20.85;3.67;;;16.50;99.90;;;;;;4939098;28;38775;-77
2023/08/03 04:55:40;;;;;;;21.90;4.22;;;16.50;99.90;;;;;;4938023;28;39088;-80
2023/08/03 04:58:06;;;;;;;18.25;3.40;;;16.50;99.90;;;;;;4940471;28;36416;-78
2023/08/03 05:03:33;;;;;;;15.10;3.20;;;16.50;99.90;;;;;;5369921;23;20036;-80
2023/08/03 05:06:30;;;;;;;15.40;3.70;;;16.50;99.90;;;;;;4894701;28;39410;-80
2023/08/03 05:09:38;;;;;;;17.23;3.97;;;16.50;99.90;;;;;;4934028;28;38190;-80
2023/08/03 05:12:17;;;;;;;19.55;4.60;;;16.50;99.90;;;;;;4894787;29;40170;-80
2023/08/03 05:14:44;;;;;;;22.40;3.13;;;16.50;99.90;;;;;;4950527;28;38098;-78
2023/08/03 05:18:03;;;;;;;17.65;2.85;;;16.50;99.90;;;;;;4930733;28;40043;-80
2023/08/03 05:21:01;;;;;;;13.20;2.70;;;16.50;99.90;;;;;;4961188;28;37968;-79
2023/08/03 05:24:22;;;;;;;14.25;2.30;;;16.40;99.90;;;;;;4965491;28;40238;-80
2023/08/03 05:29:51;;;;;;;20.73;3.33;;;16.50;99.90;;;;;;5813490;23;20052;-79
2023/08/03 06:19:17;;;;;;;19.38;4.55;;;16.70;99.90;;;;;;5155868;23;20047;-81
2023/08/03 06:21:59;;;;;;;29.25;4.47;;;16.80;99.90;;;;;;4953579;28;38156;-80
2023/08/03 09:38:19;;;;;;;14.48;2.40;;;19.40;99.90;;;;;;5998419;23;20142;-80
2023/08/03 10:20:16;;;;;;;8.52;1.98;;;17.20;99.90;;;;;;5088364;23;20036;-79
2023/08/03 13:11:51;;;;;;;12.93;2.42;;;19.20;99.90;;;;;;5995931;23;20019;-79
2023/08/03 17:36:55;;;;;;;10.00;2.60;;;18.60;99.90;;;;;;5659120;23;20051;-80
2023/08/03 17:39:33;;;;;;;10.45;2.67;;;18.70;99.90;;;;;;4976306;28;40228;-80
2023/08/03 17:55:01;;;;;;;13.57;3.38;;;18.70;99.90;;;;;;5031583;23;20048;-78
2023/08/03 17:57:27;;;;;;;13.55;2.97;;;18.70;99.90;;;;;;4961402;28;37538;-79
2023/08/03 18:05:06;;;;;;;14.13;2.60;;;18.50;99.90;;;;;;5678889;23;20059;-80
2023/08/03 18:07:32;;;;;;;12.15;2.67;;;18.50;99.90;;;;;;4971399;28;48356;-80
2023/08/03 18:09:59;;;;;;;10.68;2.88;;;18.40;99.90;;;;;;4976955;28;40091;-82
2023/08/03 18:12:25;;;;;;;11.25;3.05;;;18.40;99.90;;;;;;4960518;28;38689;-81
2023/08/03 18:27:51;;;;;;;12.15;3.30;;;18.30;99.90;;;;;;5401087;23;20047;-79
2023/08/03 18:30:19;;;;;;;10.35;3.33;;;18.20;99.90;;;;;;4924249;28;39051;-80
2023/08/03 19:55:55;;;;;;;13.20;4.32;;;17.40;99.90;;;;;;5398575;23;20035;-81
2023/08/03 19:58:30;;;;;;;16.42;3.90;;;17.40;99.90;;;;;;4972054;28;38942;-81
2023/08/03 20:01:02;;;;;;;19.05;4.68;;;17.40;99.90;;;;;;4933390;28;37969;-80
2023/08/03 20:03:32;;;;;;;13.52;3.95;;;17.40;99.90;;;;;;4976534;28;50001;-80
2023/08/03 23:14:47;;;;;;;13.10;3.60;;;16.20;99.90;;;;;;5931833;23;21130;-80
2023/08/03 23:38:27;;;;;;;7.30;3.00;;;16.20;99.90;;;;;;5255166;24;20060;-80
2023/08/03 23:41:21;;;;;;;12.65;3.47;;;16.30;99.90;;;;;;4904463;29;37256;-80
2023/08/03 23:44:30;;;;;;;11.60;2.70;;;16.30;99.90;;;;;;4910006;28;49199;-79
2023/08/03 23:47:36;;;;;;;15.63;3.70;;;16.40;99.90;;;;;;4834950;29;38526;-80
2023/08/03 23:50:26;;;;;;;13.27;3.75;;;16.40;99.90;;;;;;4832838;29;50058;-80
2023/08/03 23:54:00;;;;;;;11.02;3.10;;;16.40;99.90;;;;;;4837580;29;37690;-79
2023/08/03 23:56:45;;;;;;;9.43;2.88;;;16.50;99.90;;;;;;4854649;29;40272;-80
2023/08/03 23:59:48;;;;;;;16.67;4.20;;;16.50;99.90;;;;;;4847060;29;40482;-79
